OSI weather

Osijek Airport
Osijek, Osijek-Baranja County, Croatia

Public forecast

Using degrees Celsius for public forecast. Weather courtesy of forecast.io.

Current aviation weather report (METAR) for Osijek Airport

Retrieved 2020/05/27 06:30 UTC (0 seconds ago):

LDOS 270630Z 32010KT 9999 SCT047 13/10 Q1027

Aviation forecast (TAF) for Osijek Airport

Retrieved 2020/05/27 06:27 UTC (0 seconds ago):

TAF LDOS 270525Z 2706/2806 29008KT CAVOK TX20/2714Z TN10/2804Z TEMPO 2710/2718 SHRA FEW035TCU PROB30 TEMPO 2712/2718 36015G28KT 3000 TSRA FEW030CB BKN040